Time;durP1;ratioP1;P1;durP2;ratioP2;P2;SDS_P1;SDS_P2;PMS_P1;PMS_P2;Temp;Humidity;BMP_temperature;BMP_pressure;BME280_temperature;BME280_humidity;BME280_pressure;Samples;Min_cycle;Max_cycle;Signal;HPM_P1;HPM_P2
2022/05/10 00:01:10;;;;;;;;;;;;;;;;;;5058596;28;1357;-64
2022/05/10 00:03:37;;;;;;;;;;;;;;;;;;5058389;28;1268;-64
2022/05/10 00:06:04;;;;;;;;;;;;;;;;;;5059130;28;1387;-64
2022/05/10 00:08:29;;;;;;;;;;;;;;;;;;5056322;28;1890;-65
2022/05/10 00:10:56;;;;;;;;;;;;;;;;;;5060119;28;1490;-65
2022/05/10 00:13:22;;;;;;;;;;;;;;;;;;5055912;28;1321;-65
2022/05/10 00:15:47;;;;;;;;;;;;;;;;;;5060142;28;1195;-65
2022/05/10 00:18:14;;;;;;;;;;;;;;;;;;5059252;28;1335;-65
2022/05/10 00:20:40;;;;;;;;;;;;;;;;;;5060011;28;1266;-65
2022/05/10 00:23:06;;;;;;;;;;;;;;;;;;5060120;28;1250;-65
2022/05/10 00:25:31;;;;;;;;;;;;;;;;;;5059903;28;1446;-65
2022/05/10 00:27:57;;;;;;;;;;;;;;;;;;5059639;28;1972;-65
2022/05/10 00:30:22;;;;;;;;;;;;;;;;;;5060008;28;1274;-65
2022/05/10 00:32:48;;;;;;;;;;;;;;;;;;5057383;28;1276;-65
2022/05/10 00:35:33;;;;;;;;;;;;;;;;;;5059077;28;1286;-65
2022/05/10 00:37:59;;;;;;;;;;;;;;;;;;5058196;28;1310;-64
2022/05/10 00:40:26;;;;;;;;;;;;;;;;;;5060404;28;1317;-65
2022/05/10 00:42:55;;;;;;;;;;;;;;;;;;5060301;28;1243;-65
2022/05/10 00:45:23;;;;;;;;;;;;;;;;;;5063669;28;1262;-64
2022/05/10 00:48:07;;;;;;;;;;;;;;;;;;5063167;28;1969;-64
2022/05/10 00:50:36;;;;;;;;;;;;;;;;;;5063148;28;1156;-64
2022/05/10 00:53:11;;;;;;;;;;;;;;;;;;5062885;28;1255;-64
2022/05/10 00:55:44;;;;;;;;;;;;;;;;;;5056573;28;1227;-64
2022/05/10 00:58:13;;;;;;;;;;;;;;;;;;5063240;28;1271;-65
2022/05/10 01:00:39;;;;;;;;;;;;;;;;;;5061940;28;1302;-65
2022/05/10 01:03:22;;;;;;;;;;;;;;;;;;5061909;28;1398;-65
2022/05/10 01:05:54;;;;;;;;;;;;;;;;;;5059123;28;1065;-65
2022/05/10 01:08:22;;;;;;;;;;;;;;;;;;5059966;28;1902;-65
2022/05/10 01:10:51;;;;;;;;;;;;;;;;;;5060885;28;3494;-65
2022/05/10 01:13:27;;;;;;;;;;;;;;;;;;5060717;28;3299;-65
2022/05/10 01:16:05;;;;;;;;;;;;;;;;;;5061000;28;3843;-65
2022/05/10 01:18:32;;;;;;;;;;;;;;;;;;5062732;28;1327;-65
2022/05/10 01:21:22;;;;;;;;;;;;;;;;;;5062076;28;3182;-65
2022/05/10 01:24:01;;;;;;;;;;;;;;;;;;5062898;28;1358;-65
2022/05/10 01:26:32;;;;;;;;;;;;;;;;;;5060705;28;1296;-65
2022/05/10 01:29:00;;;;;;;;;;;;;;;;;;5061275;28;1976;-65
2022/05/10 01:31:29;;;;;;;;;;;;;;;;;;5062419;28;1321;-65
2022/05/10 01:33:57;;;;;;;;;;;;;;;;;;5062136;28;3475;-65
2022/05/10 01:36:29;;;;;;;;;;;;;;;;;;5060439;28;3489;-65
2022/05/10 01:39:20;;;;;;;;;;;;;;;;;;5060433;28;3765;-65
2022/05/10 01:41:54;;;;;;;;;;;;;;;;;;5045791;28;1469;-65
2022/05/10 01:44:32;;;;;;;;;;;;;;;;;;5060789;28;3004;-65
2022/05/10 01:47:02;;;;;;;;;;;;;;;;;;5062808;28;1898;-65
2022/05/10 01:49:28;;;;;;;;;;;;;;;;;;5060411;28;1311;-65
2022/05/10 01:51:58;;;;;;;;;;;;;;;;;;5062365;28;1352;-65
2022/05/10 01:54:39;;;;;;;;;;;;;;;;;;5061481;28;1302;-65
2022/05/10 01:57:04;;;;;;;;;;;;;;;;;;5061451;28;1482;-65
2022/05/10 01:59:29;;;;;;;;;;;;;;;;;;5061543;28;1744;-65
2022/05/10 02:01:56;;;;;;;;;;;;;;;;;;5062139;28;1160;-65
2022/05/10 02:04:28;;;;;;;;;;;;;;;;;;5062467;28;1247;-65
2022/05/10 02:07:10;;;;;;;;;;;;;;;;;;5059561;28;1894;-64
2022/05/10 02:09:39;;;;;;;;;;;;;;;;;;5060589;28;1617;-65
2022/05/10 02:12:13;;;;;;;;;;;;;;;;;;5061720;28;1334;-65
2022/05/10 02:14:50;;;;;;;;;;;;;;;;;;5062185;28;1478;-65
2022/05/10 02:17:15;;;;;;;;;;;;;;;;;;5062147;28;1487;-65
2022/05/10 02:19:43;;;;;;;;;;;;;;;;;;5059951;28;1334;-65
2022/05/10 02:22:12;;;;;;;;;;;;;;;;;;5051023;28;1609;-65
2022/05/10 02:24:37;;;;;;;;;;;;;;;;;;5060554;28;1403;-65
2022/05/10 02:27:04;;;;;;;;;;;;;;;;;;5060765;28;1901;-65
2022/05/10 02:29:34;;;;;;;;;;;;;;;;;;5061254;28;1346;-65
2022/05/10 02:34:51;;;;;;;;;;;;;;;;;;5058236;28;1372;-66
2022/05/10 02:37:16;;;;;;;;;;;;;;;;;;5058144;28;1132;-66
2022/05/10 02:39:41;;;;;;;;;;;;;;;;;;5061877;28;1397;-65
2022/05/10 02:42:09;;;;;;;;;;;;;;;;;;5061245;28;1263;-66
2022/05/10 02:44:34;;;;;;;;;;;;;;;;;;5061835;28;1255;-66
2022/05/10 02:47:00;;;;;;;;;;;;;;;;;;5061761;28;2001;-66
2022/05/10 02:49:26;;;;;;;;;;;;;;;;;;5059131;28;1306;-66
2022/05/10 02:51:51;;;;;;;;;;;;;;;;;;5061337;28;1244;-65
2022/05/10 02:54:16;;;;;;;;;;;;;;;;;;5061607;28;1176;-66
2022/05/10 02:56:42;;;;;;;;;;;;;;;;;;5061703;28;1195;-66
2022/05/10 02:59:10;;;;;;;;;;;;;;;;;;5061169;28;1397;-65
2022/05/10 03:01:49;;;;;;;;;;;;;;;;;;5061217;28;1267;-66
2022/05/10 03:04:15;;;;;;;;;;;;;;;;;;5060628;28;1274;-66
2022/05/10 03:06:42;;;;;;;;;;;;;;;;;;5056604;28;1482;-65
2022/05/10 03:09:07;;;;;;;;;;;;;;;;;;5060809;28;1949;-65
2022/05/10 03:11:35;;;;;;;;;;;;;;;;;;5055129;28;1295;-66
2022/05/10 03:14:00;;;;;;;;;;;;;;;;;;5060673;28;1604;-65
2022/05/10 03:16:26;;;;;;;;;;;;;;;;;;5060927;28;1271;-66
2022/05/10 03:18:52;;;;;;;;;;;;;;;;;;5059423;28;1432;-65
2022/05/10 03:21:18;;;;;;;;;;;;;;;;;;5060238;28;1211;-65
2022/05/10 03:23:44;;;;;;;;;;;;;;;;;;5061259;28;1322;-65
2022/05/10 03:26:10;;;;;;;;;;;;;;;;;;5061325;28;1160;-66
2022/05/10 03:28:36;;;;;;;;;;;;;;;;;;5060640;28;1965;-66
2022/05/10 03:31:01;;;;;;;;;;;;;;;;;;5063334;28;1230;-66
2022/05/10 03:33:26;;;;;;;;;;;;;;;;;;5060023;28;1313;-66
2022/05/10 03:35:52;;;;;;;;;;;;;;;;;;5060409;28;1553;-66
2022/05/10 03:38:18;;;;;;;;;;;;;;;;;;5059487;28;1337;-66
2022/05/10 03:40:44;;;;;;;;;;;;;;;;;;5061150;28;1311;-66
2022/05/10 03:43:09;;;;;;;;;;;;;;;;;;5060314;28;1248;-64
2022/05/10 03:45:34;;;;;;;;;;;;;;;;;;5059990;28;1477;-64
2022/05/10 03:48:00;;;;;;;;;;;;;;;;;;5059040;28;1898;-64
2022/05/10 03:50:25;;;;;;;;;;;;;;;;;;5060812;28;1306;-65
2022/05/10 03:52:51;;;;;;;;;;;;;;;;;;5060179;28;1206;-65
2022/05/10 03:55:17;;;;;;;;;;;;;;;;;;5060498;28;1310;-65
2022/05/10 03:57:44;;;;;;;;;;;;;;;;;;5060429;28;1413;-65
2022/05/10 04:00:11;;;;;;;;;;;;;;;;;;5059271;28;1246;-65
2022/05/10 04:02:36;;;;;;;;;;;;;;;;;;5060057;28;1219;-65
2022/05/10 04:05:02;;;;;;;;;;;;;;;;;;5059493;28;1341;-65
2022/05/10 04:07:27;;;;;;;;;;;;;;;;;;5059520;28;1977;-65
2022/05/10 04:09:52;;;;;;;;;;;;;;;;;;5060631;28;1341;-66
2022/05/10 04:12:17;;;;;;;;;;;;;;;;;;5056407;28;1264;-64
2022/05/10 04:14:43;;;;;;;;;;;;;;;;;;5059387;28;1336;-70
2022/05/10 04:17:08;;;;;;;;;;;;;;;;;;5058607;28;1348;-70
2022/05/10 04:19:33;;;;;;;;;;;;;;;;;;5059421;28;1274;-70
2022/05/10 04:21:58;;;;;;;;;;;;;;;;;;5060249;28;1322;-69
2022/05/10 04:24:23;;;;;;;;;;;;;;;;;;5060108;28;1258;-69
2022/05/10 04:26:49;;;;;;;;;;;;;;;;;;5060527;28;1270;-69
2022/05/10 04:29:14;;;;;;;;;;;;;;;;;;5059477;28;1894;-70
2022/05/10 04:31:39;;;;;;;;;;;;;;;;;;5059572;28;1470;-70
2022/05/10 04:34:04;;;;;;;;;;;;;;;;;;5057839;28;1294;-69
2022/05/10 04:36:30;;;;;;;;;;;;;;;;;;5059115;28;1137;-69
2022/05/10 04:38:55;;;;;;;;;;;;;;;;;;5059154;28;1290;-69
2022/05/10 04:41:28;;;;;;;;;;;;;;;;;;5059519;28;1377;-68
2022/05/10 04:43:58;;;;;;;;;;;;;;;;;;5059082;28;1338;-69
2022/05/10 04:46:23;;;;;;;;;;;;;;;;;;5059133;28;1471;-69
2022/05/10 04:48:48;;;;;;;;;;;;;;;;;;5059233;28;1897;-68
2022/05/10 04:51:14;;;;;;;;;;;;;;;;;;5058846;28;1396;-68
2022/05/10 04:53:39;;;;;;;;;;;;;;;;;;5058499;28;1250;-68
2022/05/10 04:56:05;;;;;;;;;;;;;;;;;;5059657;28;1297;-68
2022/05/10 04:58:30;;;;;;;;;;;;;;;;;;5058392;28;1303;-69
2022/05/10 05:00:58;;;;;;;;;;;;;;;;;;5056251;28;1526;-69
2022/05/10 05:03:24;;;;;;;;;;;;;;;;;;5058802;28;1269;-69
2022/05/10 05:05:49;;;;;;;;;;;;;;;;;;5059678;28;1246;-69
2022/05/10 05:08:14;;;;;;;;;;;;;;;;;;5058644;28;1882;-69
2022/05/10 05:10:39;;;;;;;;;;;;;;;;;;5053186;28;1321;-69
2022/05/10 05:13:04;;;;;;;;;;;;;;;;;;5059409;28;1367;-69
2022/05/10 05:15:30;;;;;;;;;;;;;;;;;;5058716;28;1886;-69
2022/05/10 05:17:55;;;;;;;;;;;;;;;;;;5059183;28;1311;-69
2022/05/10 05:20:20;;;;;;;;;;;;;;;;;;5057096;28;1543;-70
2022/05/10 05:22:45;;;;;;;;;;;;;;;;;;5059311;28;1290;-69
2022/05/10 05:25:10;;;;;;;;;;;;;;;;;;5059202;28;1191;-69
2022/05/10 05:27:36;;;;;;;;;;;;;;;;;;5058083;28;1898;-69
2022/05/10 05:30:01;;;;;;;;;;;;;;;;;;5059452;28;1263;-69
2022/05/10 05:32:28;;;;;;;;;;;;;;;;;;5062586;28;1439;-70
2022/05/10 05:34:53;;;;;;;;;;;;;;;;;;5061788;28;1341;-69
2022/05/10 05:37:33;;;;;;;;;;;;;;;;;;5061645;28;1581;-69
2022/05/10 05:39:59;;;;;;;;;;;;;;;;;;5053153;28;1420;-69
2022/05/10 05:42:24;;;;;;;;;;;;;;;;;;5062243;28;1370;-69
2022/05/10 05:44:50;;;;;;;;;;;;;;;;;;5061371;28;1381;-69
2022/05/10 05:47:15;;;;;;;;;;;;;;;;;;5062329;28;1979;-69
2022/05/10 05:49:41;;;;;;;;;;;;;;;;;;5061398;28;1652;-69
2022/05/10 05:52:06;;;;;;;;;;;;;;;;;;5062941;28;1231;-69
2022/05/10 05:54:32;;;;;;;;;;;;;;;;;;5059323;28;1547;-69
2022/05/10 05:57:05;;;;;;;;;;;;;;;;;;5060790;28;1659;-70
2022/05/10 05:59:30;;;;;;;;;;;;;;;;;;5053357;28;1443;-69
2022/05/10 06:01:56;;;;;;;;;;;;;;;;;;5060925;28;1790;-70
2022/05/10 06:04:21;;;;;;;;;;;;;;;;;;5061889;28;1256;-70
2022/05/10 06:06:46;;;;;;;;;;;;;;;;;;5061122;28;1279;-70
2022/05/10 06:09:11;;;;;;;;;;;;;;;;;;5059395;28;1937;-69
2022/05/10 06:11:37;;;;;;;;;;;;;;;;;;5061660;28;1247;-74
2022/05/10 06:14:02;;;;;;;;;;;;;;;;;;5060918;28;1518;-71
2022/05/10 06:16:27;;;;;;;;;;;;;;;;;;5059916;28;1331;-70
2022/05/10 06:18:53;;;;;;;;;;;;;;;;;;5061145;28;1523;-70
2022/05/10 06:21:18;;;;;;;;;;;;;;;;;;5061596;28;1268;-70
2022/05/10 06:23:43;;;;;;;;;;;;;;;;;;5060523;28;1228;-70
2022/05/10 06:26:09;;;;;;;;;;;;;;;;;;5062694;28;1191;-73
2022/05/10 06:28:34;;;;;;;;;;;;;;;;;;5060327;28;1876;-71
2022/05/10 06:30:59;;;;;;;;;;;;;;;;;;5061293;28;1238;-73
2022/05/10 06:33:25;;;;;;;;;;;;;;;;;;5062165;28;1270;-70
2022/05/10 06:35:50;;;;;;;;;;;;;;;;;;5055924;28;1484;-69
2022/05/10 06:38:27;;;;;;;;;;;;;;;;;;5060820;28;1390;-69
2022/05/10 06:40:52;;;;;;;;;;;;;;;;;;5060698;28;1128;-68
2022/05/10 06:43:17;;;;;;;;;;;;;;;;;;5062025;28;1282;-68
2022/05/10 06:45:43;;;;;;;;;;;;;;;;;;5061919;28;1287;-69
2022/05/10 06:48:09;;;;;;;;;;;;;;;;;;5061048;28;1959;-69
2022/05/10 06:50:35;;;;;;;;;;;;;;;;;;5059351;28;1381;-70
2022/05/10 06:53:00;;;;;;;;;;;;;;;;;;5058851;28;1201;-69
2022/05/10 06:55:26;;;;;;;;;;;;;;;;;;5061338;28;1259;-69
2022/05/10 06:57:52;;;;;;;;;;;;;;;;;;5060816;28;1349;-69
2022/05/10 07:00:17;;;;;;;;;;;;;;;;;;5061503;28;1242;-69
2022/05/10 07:02:42;;;;;;;;;;;;;;;;;;5061450;28;1313;-69
2022/05/10 07:05:08;;;;;;;;;;;;;;;;;;5061584;28;1246;-69
2022/05/10 07:07:34;;;;;;;;;;;;;;;;;;5061048;28;1894;-69
2022/05/10 07:09:59;;;;;;;;;;;;;;;;;;5061493;28;1266;-69
2022/05/10 07:12:24;;;;;;;;;;;;;;;;;;5061304;28;1362;-70
2022/05/10 07:14:49;;;;;;;;;;;;;;;;;;5061153;28;1251;-70
2022/05/10 07:17:15;;;;;;;;;;;;;;;;;;5060949;28;1243;-69
2022/05/10 07:19:40;;;;;;;;;;;;;;;;;;5061096;28;1306;-69
2022/05/10 07:22:05;;;;;;;;;;;;;;;;;;5061052;28;1242;-70
2022/05/10 07:24:31;;;;;;;;;;;;;;;;;;5061120;28;1365;-70
2022/05/10 07:26:56;;;;;;;;;;;;;;;;;;5060185;28;1228;-70
2022/05/10 07:29:22;;;;;;;;;;;;;;;;;;5061987;28;1967;-69
2022/05/10 07:31:47;;;;;;;;;;;;;;;;;;5060752;28;1299;-69
2022/05/10 07:34:13;;;;;;;;;;;;;;;;;;5061274;28;1242;-70
2022/05/10 07:36:39;;;;;;;;;;;;;;;;;;5059413;28;1144;-70
2022/05/10 07:39:05;;;;;;;;;;;;;;;;;;5057575;28;1419;-69
2022/05/10 07:41:31;;;;;;;;;;;;;;;;;;5061137;28;1359;-69
2022/05/10 07:43:56;;;;;;;;;;;;;;;;;;5061578;28;1263;-68
2022/05/10 07:46:21;;;;;;;;;;;;;;;;;;5060032;28;1394;-68
2022/05/10 07:48:47;;;;;;;;;;;;;;;;;;5053792;28;3563;-70
2022/05/10 07:51:12;;;;;;;;;;;;;;;;;;5061275;28;3127;-71
2022/05/10 07:53:37;;;;;;;;;;;;;;;;;;5060744;28;1421;-71
2022/05/10 07:56:03;;;;;;;;;;;;;;;;;;5060201;28;3092;-70
2022/05/10 07:58:29;;;;;;;;;;;;;;;;;;5059513;28;1673;-69
2022/05/10 08:00:54;;;;;;;;;;;;;;;;;;5057603;28;1449;-70
2022/05/10 08:03:21;;;;;;;;;;;;;;;;;;5059326;28;1326;-70
2022/05/10 08:05:47;;;;;;;;;;;;;;;;;;5060403;28;1365;-69
2022/05/10 08:08:13;;;;;;;;;;;;;;;;;;5059751;28;2988;-71
2022/05/10 08:10:39;;;;;;;;;;;;;;;;;;5054678;28;1577;-70
2022/05/10 08:13:08;;;;;;;;;;;;;;;;;;5058779;28;1359;-70
2022/05/10 08:15:33;;;;;;;;;;;;;;;;;;5060412;28;1322;-70
2022/05/10 08:17:58;;;;;;;;;;;;;;;;;;5059624;28;1263;-70
2022/05/10 08:20:24;;;;;;;;;;;;;;;;;;5060765;28;1282;-70
2022/05/10 08:22:49;;;;;;;;;;;;;;;;;;5060341;28;1243;-70
2022/05/10 08:25:14;;;;;;;;;;;;;;;;;;5059370;28;1290;-70
2022/05/10 08:27:40;;;;;;;;;;;;;;;;;;5059920;28;1961;-70
2022/05/10 08:30:05;;;;;;;;;;;;;;;;;;5060102;28;1266;-69
2022/05/10 08:32:31;;;;;;;;;;;;;;;;;;5060580;28;1326;-70
2022/05/10 08:34:56;;;;;;;;;;;;;;;;;;5059317;28;1318;-70
2022/05/10 08:37:21;;;;;;;;;;;;;;;;;;5060265;28;1230;-70
2022/05/10 08:39:46;;;;;;;;;;;;;;;;;;5059735;28;1323;-70
2022/05/10 08:42:12;;;;;;;;;;;;;;;;;;5060557;28;1231;-70
2022/05/10 08:44:38;;;;;;;;;;;;;;;;;;5059393;28;1835;-70
2022/05/10 08:47:06;;;;;;;;;;;;;;;;;;5058392;28;1290;-70
2022/05/10 08:49:35;;;;;;;;;;;;;;;;;;5059412;28;1448;-70
2022/05/10 08:52:01;;;;;;;;;;;;;;;;;;5060315;28;1306;-70
2022/05/10 08:54:27;;;;;;;;;;;;;;;;;;5059814;28;1207;-70
2022/05/10 08:56:57;;;;;;;;;;;;;;;;;;5059305;28;1510;-70
2022/05/10 08:59:22;;;;;;;;;;;;;;;;;;5057262;28;1404;-70
2022/05/10 09:01:57;;;;;;;;;;;;;;;;;;5059498;28;1470;-70
2022/05/10 09:04:30;;;;;;;;;;;;;;;;;;5059582;28;1624;-70
2022/05/10 09:06:55;;;;;;;;;;;;;;;;;;5057835;28;1176;-70
2022/05/10 09:09:24;;;;;;;;;;;;;;;;;;5061659;28;1894;-70
2022/05/10 09:12:16;;;;;;;;;;;;;;;;;;5062984;28;1303;-70
2022/05/10 09:14:47;;;;;;;;;;;;;;;;;;5062504;28;1502;-70
2022/05/10 09:17:13;;;;;;;;;;;;;;;;;;5062605;28;1503;-70
2022/05/10 09:19:40;;;;;;;;;;;;;;;;;;5061963;28;1596;-70
2022/05/10 09:22:12;;;;;;;;;;;;;;;;;;5062620;28;1416;-70
2022/05/10 09:24:46;;;;;;;;;;;;;;;;;;5058826;28;1373;-70
2022/05/10 09:27:13;;;;;;;;;;;;;;;;;;5062408;28;1897;-70
2022/05/10 09:29:42;;;;;;;;;;;;;;;;;;5061336;28;1306;-70
2022/05/10 09:35:09;;;;;;;;;;;;;;;;;;5061524;28;1150;-69
2022/05/10 09:37:39;;;;;;;;;;;;;;;;;;5062252;28;1423;-71
2022/05/10 09:40:13;;;;;;;;;;;;;;;;;;5062668;28;1317;-72
2022/05/10 09:42:40;;;;;;;;;;;;;;;;;;5060206;28;1435;-70
2022/05/10 09:45:10;;;;;;;;;;;;;;;;;;5062986;28;1525;-71
2022/05/10 09:47:35;;;;;;;;;;;;;;;;;;5062814;28;1956;-71
2022/05/10 09:50:17;;;;;;;;;;;;;;;;;;5058435;28;1310;-72
2022/05/10 09:52:43;;;;;;;;;;;;;;;;;;5056282;28;1467;-70
2022/05/10 09:55:10;;;;;;;;;;;;;;;;;;5060432;28;1174;-71
2022/05/10 09:57:37;;;;;;;;;;;;;;;;;;5062928;28;1266;-70
2022/05/10 10:00:03;;;;;;;;;;;;;;;;;;5062282;28;1301;-70
2022/05/10 10:02:28;;;;;;;;;;;;;;;;;;5062225;28;1553;-72
2022/05/10 10:04:54;;;;;;;;;;;;;;;;;;5060900;28;1351;-71
2022/05/10 10:07:22;;;;;;;;;;;;;;;;;;5063190;28;1958;-71
2022/05/10 10:09:48;;;;;;;;;;;;;;;;;;5060874;28;1387;-72
2022/05/10 10:12:16;;;;;;;;;;;;;;;;;;5061532;28;1266;-72
2022/05/10 10:14:43;;;;;;;;;;;;;;;;;;5060916;28;1380;-71
2022/05/10 10:17:22;;;;;;;;;;;;;;;;;;5056701;28;1501;-71
2022/05/10 10:19:49;;;;;;;;;;;;;;;;;;5061759;28;1460;-70
2022/05/10 10:22:17;;;;;;;;;;;;;;;;;;5065742;28;1419;-71
2022/05/10 10:24:58;;;;;;;;;;;;;;;;;;5064775;28;1335;-72
2022/05/10 10:27:30;;;;;;;;;;;;;;;;;;5065196;28;1969;-72
2022/05/10 10:29:58;;;;;;;;;;;;;;;;;;5065463;28;1330;-71
2022/05/10 10:32:28;;;;;;;;;;;;;;;;;;5065174;28;1433;-71
2022/05/10 10:34:58;;;;;;;;;;;;;;;;;;5065014;28;1354;-70
2022/05/10 10:37:36;;;;;;;;;;;;;;;;;;5053069;28;1458;-70
2022/05/10 10:40:19;;;;;;;;;;;;;;;;;;5062671;28;1275;-71
2022/05/10 10:42:51;;;;;;;;;;;;;;;;;;5061839;28;1255;-71
2022/05/10 10:45:17;;;;;;;;;;;;;;;;;;5061422;28;1310;-72
2022/05/10 10:48:02;;;;;;;;;;;;;;;;;;5060778;28;1902;-71
2022/05/10 10:50:29;;;;;;;;;;;;;;;;;;5049606;28;1469;-72
2022/05/10 10:52:56;;;;;;;;;;;;;;;;;;5061563;28;1206;-71
2022/05/10 10:55:30;;;;;;;;;;;;;;;;;;5059654;28;1549;-71
2022/05/10 10:58:04;;;;;;;;;;;;;;;;;;5064768;28;1248;-70
2022/05/10 11:00:33;;;;;;;;;;;;;;;;;;5067089;28;1168;-72
2022/05/10 11:02:58;;;;;;;;;;;;;;;;;;5058802;28;1407;-73
2022/05/10 11:05:24;;;;;;;;;;;;;;;;;;5061622;28;1258;-72
2022/05/10 11:08:11;;;;;;;;;;;;;;;;;;5060093;28;1902;-72
2022/05/10 11:10:37;;;;;;;;;;;;;;;;;;5057367;28;1320;-74
2022/05/10 11:13:10;;;;;;;;;;;;;;;;;;5061796;28;1323;-72
2022/05/10 11:15:38;;;;;;;;;;;;;;;;;;5060983;28;1488;-72
2022/05/10 11:18:15;;;;;;;;;;;;;;;;;;5051119;28;1482;-72
2022/05/10 11:20:46;;;;;;;;;;;;;;;;;;5061278;28;1198;-70
2022/05/10 11:23:21;;;;;;;;;;;;;;;;;;5062191;28;1223;-71
2022/05/10 11:26:02;;;;;;;;;;;;;;;;;;5052414;28;1295;-71
2022/05/10 11:28:33;;;;;;;;;;;;;;;;;;5059398;28;1957;-70
2022/05/10 11:31:16;;;;;;;;;;;;;;;;;;5060969;28;1290;-71
2022/05/10 11:33:47;;;;;;;;;;;;;;;;;;5060247;28;1347;-70
2022/05/10 11:36:24;;;;;;;;;;;;;;;;;;5059568;28;1228;-70
2022/05/10 11:39:08;;;;;;;;;;;;;;;;;;5056768;28;1299;-71
2022/05/10 11:41:41;;;;;;;;;;;;;;;;;;5060931;28;1252;-71
2022/05/10 11:44:19;;;;;;;;;;;;;;;;;;5059445;28;1361;-72
2022/05/10 11:47:04;;;;;;;;;;;;;;;;;;5061740;28;1343;-71
2022/05/10 11:49:48;;;;;;;;;;;;;;;;;;5063566;28;1897;-71
2022/05/10 11:52:30;;;;;;;;;;;;;;;;;;5061597;28;1251;-71
2022/05/10 11:54:56;;;;;;;;;;;;;;;;;;5064226;28;1338;-71
2022/05/10 11:57:22;;;;;;;;;;;;;;;;;;5063357;28;1424;-70
2022/05/10 11:59:48;;;;;;;;;;;;;;;;;;5059927;28;1406;-70
2022/05/10 12:02:46;;;;;;;;;;;;;;;;;;5061127;28;1160;-71
2022/05/10 12:05:14;;;;;;;;;;;;;;;;;;5047780;28;1394;-70
2022/05/10 12:07:49;;;;;;;;;;;;;;;;;;5059329;28;1960;-70
2022/05/10 12:10:26;;;;;;;;;;;;;;;;;;5060253;28;1364;-70
2022/05/10 12:12:51;;;;;;;;;;;;;;;;;;5058418;28;1529;-71
2022/05/10 12:21:27;;;;;;;;;;;;;;;;;;5058747;28;1747;-70
2022/05/10 12:24:02;;;;;;;;;;;;;;;;;;5053562;28;1168;-71
2022/05/10 12:26:46;;;;;;;;;;;;;;;;;;5059881;28;1403;-71
2022/05/10 12:29:36;;;;;;;;;;;;;;;;;;5060102;28;1897;-71
2022/05/10 12:32:03;;;;;;;;;;;;;;;;;;5057923;28;1487;-72
2022/05/10 12:34:48;;;;;;;;;;;;;;;;;;5062167;28;1526;-72
2022/05/10 12:37:22;;;;;;;;;;;;;;;;;;5064640;28;1490;-72
2022/05/10 12:39:55;;;;;;;;;;;;;;;;;;5059092;28;1412;-71
2022/05/10 12:42:27;;;;;;;;;;;;;;;;;;5063059;28;1417;-70
2022/05/10 12:45:08;;;;;;;;;;;;;;;;;;5072368;28;1440;-71
2022/05/10 12:47:33;;;;;;;;;;;;;;;;;;5064119;28;1894;-71
2022/05/10 12:50:02;;;;;;;;;;;;;;;;;;5063657;28;1401;-71
2022/05/10 12:52:43;;;;;;;;;;;;;;;;;;5069379;28;1514;-71
2022/05/10 12:55:16;;;;;;;;;;;;;;;;;;5070195;28;1319;-71
2022/05/10 12:57:50;;;;;;;;;;;;;;;;;;5061593;28;1431;-69
2022/05/10 13:00:21;;;;;;;;;;;;;;;;;;5069721;28;1165;-69
2022/05/10 13:02:55;;;;;;;;;;;;;;;;;;5063821;28;1200;-72
2022/05/10 13:05:27;;;;;;;;;;;;;;;;;;5062988;28;1271;-71
2022/05/10 13:08:02;;;;;;;;;;;;;;;;;;5063288;28;1977;-71
2022/05/10 13:10:28;;;;;;;;;;;;;;;;;;5061792;28;1382;-71
2022/05/10 13:12:57;;;;;;;;;;;;;;;;;;5060683;28;1336;-71
2022/05/10 13:15:23;;;;;;;;;;;;;;;;;;5060470;28;1172;-71
2022/05/10 13:17:55;;;;;;;;;;;;;;;;;;5061419;28;1398;-71
2022/05/10 13:20:22;;;;;;;;;;;;;;;;;;5061351;28;1458;-71
2022/05/10 13:22:49;;;;;;;;;;;;;;;;;;5061407;28;1375;-71
2022/05/10 13:25:14;;;;;;;;;;;;;;;;;;5060434;28;1513;-71
2022/05/10 13:27:41;;;;;;;;;;;;;;;;;;5059886;28;1905;-71
2022/05/10 13:30:17;;;;;;;;;;;;;;;;;;5060662;28;1124;-71
2022/05/10 13:32:47;;;;;;;;;;;;;;;;;;5060692;28;1340;-71
2022/05/10 13:35:23;;;;;;;;;;;;;;;;;;5063540;28;1104;-71
2022/05/10 13:37:53;;;;;;;;;;;;;;;;;;5062696;28;1295;-71
2022/05/10 13:40:27;;;;;;;;;;;;;;;;;;5062052;28;1163;-71
2022/05/10 13:42:53;;;;;;;;;;;;;;;;;;5059400;28;1291;-71
2022/05/10 13:45:20;;;;;;;;;;;;;;;;;;5059289;28;1562;-70
2022/05/10 13:47:48;;;;;;;;;;;;;;;;;;5059037;28;1902;-70
2022/05/10 13:50:20;;;;;;;;;;;;;;;;;;5059714;28;1409;-71
2022/05/10 13:52:48;;;;;;;;;;;;;;;;;;5059581;28;1542;-71
2022/05/10 13:55:18;;;;;;;;;;;;;;;;;;5061061;28;1494;-70
2022/05/10 13:58:04;;;;;;;;;;;;;;;;;;5059458;28;1247;-70
2022/05/10 14:00:34;;;;;;;;;;;;;;;;;;5061279;28;1407;-71
2022/05/10 14:03:00;;;;;;;;;;;;;;;;;;5061953;28;1550;-70
2022/05/10 14:05:29;;;;;;;;;;;;;;;;;;5059624;28;1382;-71
2022/05/10 14:07:59;;;;;;;;;;;;;;;;;;5062043;28;1956;-71
2022/05/10 14:10:27;;;;;;;;;;;;;;;;;;5061641;28;1287;-71
2022/05/10 14:12:57;;;;;;;;;;;;;;;;;;5061433;28;1270;-71
2022/05/10 14:15:35;;;;;;;;;;;;;;;;;;5060174;28;1479;-71
2022/05/10 14:18:06;;;;;;;;;;;;;;;;;;5061189;28;1278;-71
2022/05/10 14:20:35;;;;;;;;;;;;;;;;;;5060667;28;1362;-71
2022/05/10 14:23:03;;;;;;;;;;;;;;;;;;5061915;28;1207;-71
2022/05/10 14:25:31;;;;;;;;;;;;;;;;;;5061420;28;1310;-71
2022/05/10 14:28:24;;;;;;;;;;;;;;;;;;5059220;28;1972;-71
2022/05/10 14:30:50;;;;;;;;;;;;;;;;;;5060904;28;1723;-70
2022/05/10 14:33:20;;;;;;;;;;;;;;;;;;5062854;28;1556;-70
2022/05/10 14:35:50;;;;;;;;;;;;;;;;;;5067749;28;1330;-71
2022/05/10 14:38:19;;;;;;;;;;;;;;;;;;5062779;28;1474;-71
2022/05/10 14:40:46;;;;;;;;;;;;;;;;;;5063343;28;1511;-71
2022/05/10 14:43:13;;;;;;;;;;;;;;;;;;5065569;28;1338;-71
2022/05/10 14:45:42;;;;;;;;;;;;;;;;;;5064377;28;1541;-70
2022/05/10 14:48:37;;;;;;;;;;;;;;;;;;5061513;28;1906;-70
2022/05/10 14:51:08;;;;;;;;;;;;;;;;;;5062474;28;1490;-70
2022/05/10 14:53:39;;;;;;;;;;;;;;;;;;5062874;28;1275;-70
2022/05/10 14:56:04;;;;;;;;;;;;;;;;;;5063071;28;1259;-69
2022/05/10 14:58:30;;;;;;;;;;;;;;;;;;5064484;28;1329;-71
2022/05/10 15:00:59;;;;;;;;;;;;;;;;;;5064804;28;1604;-71
2022/05/10 15:03:24;;;;;;;;;;;;;;;;;;5062088;28;1610;-71
2022/05/10 15:05:50;;;;;;;;;;;;;;;;;;5063180;28;1576;-71
2022/05/10 15:08:16;;;;;;;;;;;;;;;;;;5063646;28;2842;-71
2022/05/10 15:10:42;;;;;;;;;;;;;;;;;;5064907;28;1440;-71
2022/05/10 15:13:09;;;;;;;;;;;;;;;;;;5065913;28;1394;-72
2022/05/10 15:15:47;;;;;;;;;;;;;;;;;;5062083;28;1584;-71
2022/05/10 15:20:56;;;;;;;;;;;;;;;;;;5060522;28;1521;-70
2022/05/10 15:23:21;;;;;;;;;;;;;;;;;;5063127;28;2755;-70
2022/05/10 15:25:47;;;;;;;;;;;;;;;;;;5063660;28;1436;-70
2022/05/10 15:28:13;;;;;;;;;;;;;;;;;;5063649;28;2001;-70
2022/05/10 15:30:38;;;;;;;;;;;;;;;;;;5056684;28;1619;-70
2022/05/10 15:33:03;;;;;;;;;;;;;;;;;;5062572;28;1542;-70
2022/05/10 15:35:29;;;;;;;;;;;;;;;;;;5061935;28;1522;-72
2022/05/10 15:37:54;;;;;;;;;;;;;;;;;;5057799;28;1496;-71
2022/05/10 15:40:20;;;;;;;;;;;;;;;;;;5061308;28;1806;-70
2022/05/10 15:42:45;;;;;;;;;;;;;;;;;;5058778;28;1628;-71
2022/05/10 15:45:11;;;;;;;;;;;;;;;;;;5062346;28;1470;-71
2022/05/10 15:47:39;;;;;;;;;;;;;;;;;;5058687;28;1965;-71
2022/05/10 15:50:05;;;;;;;;;;;;;;;;;;5063448;28;1612;-70
2022/05/10 15:52:31;;;;;;;;;;;;;;;;;;5062105;28;1498;-71
2022/05/10 15:54:56;;;;;;;;;;;;;;;;;;5061481;28;1575;-71
2022/05/10 15:57:21;;;;;;;;;;;;;;;;;;5056638;28;1553;-71
2022/05/10 15:59:47;;;;;;;;;;;;;;;;;;5058762;28;1521;-72
2022/05/10 16:02:14;;;;;;;;;;;;;;;;;;5059138;28;1349;-72
2022/05/10 16:04:39;;;;;;;;;;;;;;;;;;5059396;28;1375;-72
2022/05/10 16:07:04;;;;;;;;;;;;;;;;;;5059789;28;1413;-72
2022/05/10 16:09:30;;;;;;;;;;;;;;;;;;5058808;28;1937;-72
2022/05/10 16:11:55;;;;;;;;;;;;;;;;;;5059416;28;1250;-71
2022/05/10 16:14:20;;;;;;;;;;;;;;;;;;5056725;28;1376;-72
2022/05/10 16:16:46;;;;;;;;;;;;;;;;;;5059932;28;1337;-72
2022/05/10 16:19:11;;;;;;;;;;;;;;;;;;5064594;28;1333;-72
2022/05/10 16:21:38;;;;;;;;;;;;;;;;;;5062713;28;1187;-72
2022/05/10 16:24:03;;;;;;;;;;;;;;;;;;5059830;28;1544;-72
2022/05/10 16:31:56;;;;;;;;;;;;;;;;;;5058423;28;1419;-72
2022/05/10 16:34:22;;;;;;;;;;;;;;;;;;5059247;28;1341;-72
2022/05/10 16:36:47;;;;;;;;;;;;;;;;;;5058414;28;1350;-72
2022/05/10 16:39:12;;;;;;;;;;;;;;;;;;5057810;28;1360;-72
2022/05/10 16:41:37;;;;;;;;;;;;;;;;;;5060142;28;1110;-72
2022/05/10 16:44:03;;;;;;;;;;;;;;;;;;5056979;28;1270;-72
2022/05/10 16:46:29;;;;;;;;;;;;;;;;;;5058477;28;1345;-72
2022/05/10 16:48:55;;;;;;;;;;;;;;;;;;5059320;28;1897;-72
2022/05/10 16:51:20;;;;;;;;;;;;;;;;;;5059206;28;1250;-72
2022/05/10 16:53:45;;;;;;;;;;;;;;;;;;5056929;28;1422;-72
2022/05/10 16:56:11;;;;;;;;;;;;;;;;;;5060000;28;1409;-72
2022/05/10 16:58:36;;;;;;;;;;;;;;;;;;5073106;28;1324;-72
2022/05/10 17:01:01;;;;;;;;;;;;;;;;;;5059310;28;1263;-71
2022/05/10 17:03:26;;;;;;;;;;;;;;;;;;5060145;28;1653;-71
2022/05/10 17:05:52;;;;;;;;;;;;;;;;;;5059382;28;1326;-73
2022/05/10 17:08:20;;;;;;;;;;;;;;;;;;5057016;28;1977;-72
2022/05/10 17:10:46;;;;;;;;;;;;;;;;;;5057395;28;1301;-70
2022/05/10 17:13:11;;;;;;;;;;;;;;;;;;5056213;28;1614;-70
2022/05/10 17:15:37;;;;;;;;;;;;;;;;;;5057916;28;1411;-71
2022/05/10 17:18:02;;;;;;;;;;;;;;;;;;5058369;28;1366;-71
2022/05/10 17:20:28;;;;;;;;;;;;;;;;;;5058610;28;1262;-70
2022/05/10 17:22:54;;;;;;;;;;;;;;;;;;5057863;28;1437;-71
2022/05/10 17:25:20;;;;;;;;;;;;;;;;;;5058948;28;1467;-71
2022/05/10 17:30:30;;;;;;;;;;;;;;;;;;5062748;28;1031;-71
2022/05/10 17:32:55;;;;;;;;;;;;;;;;;;5059777;28;1565;-71
2022/05/10 17:35:21;;;;;;;;;;;;;;;;;;5060056;28;1378;-71